Flugplatz Oldenburg-Hatten

Für EDWH sind keine METAR/TAF Berichte vorhanden.
Es werden die Flugwettermeldungen vom Flugplatz Bremen in 31 km Entfernung angezeigt.

Bericht für EDDW

vom 16.01. um 09:50 UTC

Wind 11 kt aus 240°

Sichtweite 2500 m

feuchter Dunst

aufgebrochene Bewölkung in 500 ft

Temperatur 3.0°C

Taupunkt 2.0°C

Luftfeuchtigkeit 93%

Luftdruck 1020 hPa

EDDW 160950Z 24011KT 2500 BR BKN005 03/02 Q1020 TEMPO BKN004

Prognose für EDDW

vom 16.01. um 09:23 UTC

Zwischen 09:00 UTC und 18:00 UTC

Wind 8 kt aus 240°

Sichtweite 6000 m

aufgebrochene Bewölkung in 600 ft


Zwischen 09:00 UTC und 12:00 UTC zeitweise

Sichtweite 2500 m

schwacher Sprühregen

schwacher Regen

feuchter Dunst

aufgebrochene Bewölkung in 400 ft


Zwischen 12:00 UTC und 20:00 UTC zeitweise mit einer Wahrscheinlichkeit von 30%

Wind 15 kt aus 240° in Böen 25 kt

Sichtweite 3500 m

schwacher Regen

schwacher Sprühregen

aufgebrochene Bewölkung in 1200 ft


Zwischen 18:00 und 20:00 UTC übergehend zu

Wind 8 kt aus 240°

Sichtweite 6000 m

aufgebrochene Bewölkung in 1500 ft


Zwischen 22:00 UTC und 06:00 UTC zeitweise mit einer Wahrscheinlichkeit von 30%

aufgebrochene Bewölkung in 1000 ft

TAF AMD EDDW 160923Z 1609/1706 24008KT 6000 BKN006 TEMPO 1609/1612 2500 -DZRA BR BKN004 PROB30 TEMPO 1612/1620 24015G25KT 3500 -RADZ BKN012 BECMG 1618/1620 BKN015 PROB30 TEMPO 1622/1706 BKN010
Impressum